Time;durP1;ratioP1;P1;durP2;ratioP2;P2;SDS_P1;SDS_P2;PMS_P1;PMS_P2;Temp;Humidity;BMP_temperature;BMP_pressure;BME280_temperature;BME280_humidity;BME280_pressure;Samples;Min_cycle;Max_cycle;Signal;HPM_P1;HPM_P2
2023/03/12 10:59:24;;;;;;;4.13;2.22;;;;;;;7.12;98.14;96235.41;2090979;27;20566;-61
2023/03/12 11:00:28;;;;;;;8.45;2.70;;;;;;;7.30;96.52;96236.47;2088846;28;20203;-62
2023/03/12 11:01:31;;;;;;;6.03;1.80;;;;;;;7.40;95.08;96238.72;2090598;28;20220;-62
2023/03/12 12:01:56;;;;;;;8.05;3.15;;;;;;;8.11;88.66;96249.75;2091209;28;20551;-62
2023/03/12 13:33:39;;;;;;;10.18;2.20;;;;;;;8.49;82.52;96210.03;2078113;28;20567;-61
2023/03/12 13:34:44;;;;;;;12.43;2.08;;;;;;;8.70;82.11;96217.81;2073452;28;20204;-61
2023/03/12 13:36:10;;;;;;;11.25;3.38;;;;;;;9.23;81.14;96217.19;2071184;28;20239;-61
2023/03/12 13:37:27;;;;;;;15.20;3.47;;;;;;;9.59;78.77;96208.53;2068637;28;20675;-61
2023/03/12 13:38:51;;;;;;;13.10;3.17;;;;;;;9.41;78.92;96212.03;2069127;28;20232;-61
2023/03/12 13:39:53;;;;;;;13.85;2.15;;;;;;;9.18;79.21;96213.09;2075006;28;20212;-61
2023/03/12 13:41:01;;;;;;;11.23;2.65;;;;;;;9.06;80.75;96204.91;2073053;28;20194;-63
2023/03/12 13:42:27;;;;;;;17.13;2.47;;;;;;;8.99;80.56;96211.34;2070043;28;20201;-63
2023/03/12 14:13:47;;;;;;;13.25;3.30;;;;;;;8.03;90.19;96217.16;2080176;28;20566;-62
2023/03/12 14:15:17;;;;;;;11.48;2.97;;;;;;;8.06;87.64;96210.06;2073265;28;20207;-62
2023/03/12 14:16:33;;;;;;;11.80;2.95;;;;;;;8.08;88.05;96194.41;2074569;28;20645;-63
2023/03/12 14:17:36;;;;;;;9.68;2.45;;;;;;;8.27;87.53;96228.31;2079940;28;20202;-63
2023/03/12 14:18:42;;;;;;;7.90;2.20;;;;;;;8.28;86.59;96217.00;2077198;28;20723;-62
2023/03/12 14:19:49;;;;;;;11.75;2.97;;;;;;;8.33;86.69;96225.44;2078005;28;20265;-64
2023/03/12 14:20:58;;;;;;;15.13;2.00;;;;;;;8.44;86.49;96228.44;2077830;28;20197;-62
2023/03/12 14:22:03;;;;;;;8.90;2.05;;;;;;;8.47;85.77;96223.13;2078980;28;20197;-63
2023/03/12 14:23:12;;;;;;;12.13;2.40;;;;;;;8.42;85.06;96211.19;2076626;28;20256;-64
2023/03/12 14:24:57;;;;;;;13.13;2.17;;;;;;;8.72;85.59;96237.66;2079992;28;20308;-63
2023/03/12 14:26:01;;;;;;;17.73;3.10;;;;;;;8.82;85.38;96225.09;2061667;28;21038;-63
2023/03/12 14:27:12;;;;;;;19.23;2.97;;;;;;;8.87;84.00;96245.72;2058323;28;20214;-63
2023/03/12 14:28:22;;;;;;;4.10;1.95;;;;;;;8.97;83.92;96245.22;2059248;28;20221;-63
2023/03/12 14:29:30;;;;;;;11.18;2.55;;;;;;;9.07;82.85;96237.03;2060592;28;20238;-63
2023/03/12 14:30:55;;;;;;;7.43;1.75;;;;;;;9.35;81.74;96239.22;2061282;28;20230;-63
2023/03/12 14:32:02;;;;;;;8.95;2.17;;;;;;;9.76;78.53;96223.41;2076516;28;20215;-63
2023/03/12 14:33:04;;;;;;;9.25;2.08;;;;;;;10.26;77.91;96224.44;2078728;28;20653;-63
2023/03/12 14:34:19;;;;;;;13.55;2.40;;;;;;;10.79;77.24;96229.59;2077885;28;20316;-63
2023/03/12 14:35:36;;;;;;;12.77;1.95;;;;;;;10.76;75.11;96224.56;2075981;28;20625;-63
2023/03/12 14:36:45;;;;;;;8.23;1.95;;;;;;;10.59;74.30;96218.44;2081869;28;20598;-61
2023/03/12 14:38:10;;;;;;;14.93;7.00;;;;;;;10.99;75.03;96217.28;2077113;28;20204;-63
2023/03/12 14:39:20;;;;;;;6.45;3.17;;;;;;;11.02;74.22;96212.75;2079206;28;20193;-64
2023/03/12 14:40:52;;;;;;;18.75;7.38;;;;;;;11.41;73.95;96215.88;2077302;28;20225;-63
2023/03/12 14:42:03;;;;;;;8.88;1.83;;;;;;;11.39;70.89;96215.97;2077710;28;20205;-63
2023/03/12 14:43:28;;;;;;;8.90;1.95;;;;;;;11.69;71.93;96211.75;2078192;28;20221;-63
2023/03/12 14:44:31;;;;;;;9.75;2.45;;;;;;;11.50;71.21;96204.91;2078141;28;20277;-65
2023/03/12 14:45:39;;;;;;;10.93;1.92;;;;;;;11.63;70.63;96214.69;2078013;28;20201;-65
2023/03/12 14:46:53;;;;;;;8.70;1.55;;;;;;;11.74;70.74;96212.31;2076298;28;20212;-65
2023/03/12 14:47:57;;;;;;;11.57;2.30;;;;;;;11.93;70.60;96215.59;2074333;28;20266;-63
2023/03/12 14:48:58;;;;;;;7.18;1.70;;;;;;;11.85;69.42;96201.28;2079208;28;20201;-64
2023/03/12 14:50:00;;;;;;;8.55;2.00;;;;;;;11.53;71.45;96203.91;2078923;28;20212;-64
2023/03/12 14:51:04;;;;;;;7.97;2.22;;;;;;;11.08;72.21;96203.72;2079278;28;20199;-64
2023/03/12 14:52:06;;;;;;;5.68;1.88;;;;;;;11.30;72.18;96203.41;2078740;28;20199;-65
2023/03/12 14:53:17;;;;;;;8.10;2.00;;;;;;;11.13;73.40;96203.47;2078066;28;20419;-64
2023/03/12 14:54:22;;;;;;;5.93;1.70;;;;;;;10.73;73.15;96201.22;2078362;28;20600;-64
2023/03/12 14:55:24;;;;;;;8.35;1.90;;;;;;;10.42;72.98;96203.66;2081773;28;20260;-64
2023/03/12 14:56:34;;;;;;;8.80;1.67;;;;;;;10.44;72.98;96212.22;2071437;28;20589;-65
2023/03/12 14:57:36;;;;;;;6.70;1.48;;;;;;;10.47;72.79;96213.00;2076514;28;20354;-65
2023/03/12 14:58:46;;;;;;;7.68;1.55;;;;;;;10.31;71.87;96221.59;2081154;28;20216;-64
2023/03/12 14:59:56;;;;;;;9.75;1.77;;;;;;;10.12;72.29;96227.72;2081781;28;20250;-64
2023/03/12 15:01:02;;;;;;;8.00;1.55;;;;;;;9.93;72.42;96225.16;2081951;28;20243;-64
2023/03/12 15:02:13;;;;;;;7.35;1.40;;;;;;;10.01;73.48;96224.78;2079039;28;20201;-65
2023/03/12 15:03:16;;;;;;;5.40;1.75;;;;;;;9.96;73.79;96221.56;2075942;28;20274;-64
2023/03/12 15:04:22;;;;;;;8.57;2.00;;;;;;;9.88;74.46;96226.28;2077177;28;20644;-64
2023/03/12 15:05:25;;;;;;;18.55;2.78;;;;;;;9.86;75.56;96226.38;2078845;28;20213;-64
2023/03/12 15:06:28;;;;;;;13.40;1.85;;;;;;;9.86;73.46;96222.94;2080714;28;20188;-64
2023/03/12 15:07:38;;;;;;;9.70;1.75;;;;;;;9.74;73.15;96221.78;2082039;28;20204;-64
2023/03/12 15:08:42;;;;;;;5.55;1.52;;;;;;;9.68;73.44;96214.25;2071171;28;20260;-64
2023/03/12 15:09:48;;;;;;;13.48;2.42;;;;;;;9.66;74.36;96210.84;2076961;28;20237;-64
2023/03/12 15:10:53;;;;;;;7.45;1.73;;;;;;;9.63;74.54;96217.91;2079212;28;20227;-64
2023/03/12 15:12:06;;;;;;;10.07;2.13;;;;;;;9.56;74.49;96216.53;2082049;28;20271;-64
2023/03/12 15:13:11;;;;;;;7.32;1.52;;;;;;;9.55;74.58;96206.13;2075137;28;20229;-64
2023/03/12 15:14:14;;;;;;;6.30;1.30;;;;;;;9.63;75.55;96209.25;2076359;28;20544;-64
2023/03/12 15:15:45;;;;;;;10.93;2.25;;;;;;;9.67;74.38;96204.72;2078267;28;20692;-64
2023/03/12 15:16:47;;;;;;;7.07;1.75;;;;;;;9.60;73.92;96197.19;2076378;28;20251;-64
2023/03/12 15:17:49;;;;;;;7.68;1.83;;;;;;;9.63;74.22;96212.69;2080200;28;20284;-64
2023/03/12 15:18:51;;;;;;;7.28;2.60;;;;;;;9.62;74.43;96205.81;2078570;28;20201;-64
2023/03/12 15:19:56;;;;;;;14.95;1.92;;;;;;;9.62;74.00;96197.13;2076903;28;20205;-64
2023/03/12 15:21:00;;;;;;;8.30;1.70;;;;;;;9.51;74.13;96194.19;2078728;28;20199;-64
2023/03/12 15:22:03;;;;;;;9.38;2.15;;;;;;;9.44;74.58;96201.44;2079081;28;20204;-64
2023/03/12 15:23:06;;;;;;;5.47;1.50;;;;;;;9.47;74.28;96209.13;2075898;28;20225;-64
2023/03/12 15:24:12;;;;;;;9.30;1.80;;;;;;;9.45;74.65;96205.75;2080699;28;20224;-64
2023/03/12 15:25:19;;;;;;;11.95;1.80;;;;;;;9.39;75.12;96199.06;2073043;28;20198;-64
2023/03/12 15:26:21;;;;;;;6.88;1.13;;;;;;;9.45;74.84;96200.53;2072891;28;20293;-64
